createdAt,value
2022-09-05T00:01:27.845Z,100870.72
2022-09-05T00:04:10.543Z,100878.41
2022-09-05T00:06:55.688Z,100875.91
2022-09-05T00:09:40.837Z,100872.16
2022-09-05T00:12:10.547Z,100868.09
2022-09-05T00:15:17.392Z,100866.47
2022-09-05T00:18:20.313Z,100875.00
2022-09-05T00:24:25.691Z,100880.63
2022-09-05T00:24:36.938Z,100880.81
2022-09-05T00:26:25.861Z,100877.56
2022-09-05T00:29:00.286Z,100870.00
2022-09-05T00:31:54.174Z,100869.91
2022-09-05T00:34:47.359Z,100855.88
2022-09-05T00:37:32.146Z,100859.63
2022-09-05T00:40:18.687Z,100862.31
2022-09-05T00:42:50.452Z,100861.47
2022-09-05T00:45:25.259Z,100854.19
2022-09-05T00:47:57.383Z,100862.16
2022-09-05T00:50:30.875Z,100865.81
2022-09-05T00:53:06.662Z,100862.78
2022-09-05T00:55:40.584Z,100866.53
2022-09-05T00:58:34.048Z,100867.28
2022-09-05T01:01:03.761Z,100872.59
2022-09-05T01:03:56.262Z,100866.91
2022-09-05T01:06:36.414Z,100860.72
2022-09-05T01:09:18.309Z,100859.09
2022-09-05T01:11:53.572Z,100855.84
2022-09-05T01:14:30.340Z,100857.47
2022-09-05T01:17:17.809Z,100856.78
2022-09-05T01:20:19.359Z,100851.03
2022-09-05T01:23:00.541Z,100858.84
2022-09-05T01:25:44.107Z,100857.22
2022-09-05T01:29:17.314Z,100845.91
2022-09-05T01:31:17.202Z,100860.34
2022-09-05T01:33:50.105Z,100860.84
2022-09-05T01:36:52.211Z,100870.19
2022-09-05T01:40:11.750Z,100858.00
2022-09-05T01:42:21.477Z,100858.38
2022-09-05T01:44:57.909Z,100864.72
2022-09-05T01:47:43.929Z,100860.41
2022-09-05T01:50:26.756Z,100859.59
2022-09-05T01:53:11.480Z,100851.63
2022-09-05T01:56:04.820Z,100850.25
2022-09-05T01:58:46.877Z,100856.59
2022-09-05T02:01:31.712Z,100848.53
2022-09-05T02:04:26.643Z,100844.25
2022-09-05T02:07:19.234Z,100846.81
2022-09-05T02:10:07.129Z,100856.03
2022-09-05T02:12:37.869Z,100857.56
2022-09-05T02:15:09.473Z,100851.88
2022-09-05T02:17:51.804Z,100856.66
2022-09-05T02:20:24.273Z,100854.47
2022-09-05T02:23:00.543Z,100851.91
2022-09-05T02:26:01.216Z,100848.69
2022-09-05T02:28:24.145Z,100852.75
2022-09-05T02:31:09.072Z,100846.00
2022-09-05T02:34:00.138Z,100852.50
2022-09-05T02:36:35.197Z,100840.63
2022-09-05T02:45:01.822Z,100837.34
2022-09-05T02:45:05.999Z,100836.72
2022-09-05T02:45:18.802Z,100838.09
2022-09-05T02:47:46.850Z,100839.06
2022-09-05T02:55:28.967Z,100833.69
2022-09-05T02:57:30.282Z,100833.03
2022-09-05T02:57:37.964Z,100832.22
2022-09-05T02:59:13.830Z,100835.34
2022-09-05T03:01:55.103Z,100831.88
2022-09-05T03:04:30.032Z,100836.63
2022-09-05T03:07:19.929Z,100831.41
2022-09-05T03:09:59.261Z,100832.81
2022-09-05T03:12:58.088Z,100828.75
2022-09-05T03:16:06.465Z,100827.03
2022-09-05T03:19:09.449Z,100829.50
2022-09-05T03:22:09.572Z,100827.69
2022-09-05T03:25:17.535Z,100842.09
2022-09-05T03:28:21.995Z,100831.16
2022-09-05T03:31:02.453Z,100831.94
2022-09-05T03:33:46.566Z,100831.19
2022-09-05T03:36:31.257Z,100830.88
2022-09-05T03:39:31.055Z,100832.03
2022-09-05T03:42:19.091Z,100833.50
2022-09-05T03:45:08.204Z,100843.91
2022-09-05T03:48:27.641Z,100840.28
2022-09-05T03:57:04.605Z,100841.47
2022-09-05T03:57:26.005Z,100834.81
2022-09-05T03:57:41.503Z,100831.78
2022-09-05T04:00:13.036Z,100837.72
2022-09-05T04:08:10.479Z,100841.06
2022-09-05T04:08:28.550Z,100843.19
2022-09-05T04:08:42.043Z,100850.75
2022-09-05T04:11:14.708Z,100847.59
2022-09-05T04:13:49.054Z,100848.09
2022-09-05T04:16:20.568Z,100845.28
2022-09-05T04:18:52.242Z,100861.66
2022-09-05T04:21:23.156Z,100852.63
2022-09-05T04:24:02.958Z,100855.63
2022-09-05T04:26:49.153Z,100857.25
2022-09-05T04:29:25.223Z,100864.03
2022-09-05T04:32:18.379Z,100865.16
2022-09-05T04:34:54.541Z,100870.06
2022-09-05T04:37:47.929Z,100863.88
2022-09-05T04:40:34.347Z,100867.94
2022-09-05T04:43:05.154Z,100866.91
2022-09-05T04:45:41.182Z,100871.69
2022-09-05T04:48:12.567Z,100871.78
2022-09-05T04:51:00.559Z,100877.25
2022-09-05T04:53:37.383Z,100872.72
2022-09-05T04:56:08.310Z,100873.97
2022-09-05T04:59:18.757Z,100872.38
2022-09-05T05:06:00.370Z,100884.13
2022-09-05T05:06:12.238Z,100878.53
2022-09-05T05:07:19.706Z,100887.34
2022-09-05T05:09:56.272Z,100886.09
2022-09-05T05:18:01.113Z,100877.72
2022-09-05T05:18:11.478Z,100889.47
2022-09-05T05:18:49.465Z,100888.53
2022-09-05T05:21:27.017Z,100889.75
2022-09-05T05:23:57.977Z,100884.75
2022-09-05T05:26:29.125Z,100895.00
2022-09-05T05:29:00.865Z,100895.00
2022-09-05T05:31:33.339Z,100886.97
2022-09-05T05:34:14.484Z,100894.06
2022-09-05T05:37:00.233Z,100903.13
2022-09-05T05:39:31.142Z,100894.47
2022-09-05T05:42:17.471Z,100909.25
2022-09-05T05:44:50.788Z,100913.75
2022-09-05T05:47:31.567Z,100914.09
2022-09-05T05:50:11.671Z,100913.59
2022-09-05T05:52:45.718Z,100912.72
2022-09-05T05:55:52.698Z,100914.06
2022-09-05T05:58:38.741Z,100915.00
2022-09-05T06:01:46.778Z,100916.75
2022-09-05T06:05:04.396Z,100915.69
2022-09-05T06:08:41.297Z,100911.13
2022-09-05T06:14:52.723Z,100913.41
2022-09-05T06:15:08.938Z,100917.78
2022-09-05T06:17:52.908Z,100911.19
2022-09-05T06:22:09.154Z,100915.66
2022-09-05T06:24:10.344Z,100927.47
2022-09-05T06:27:16.895Z,100921.94
2022-09-05T06:29:55.547Z,100924.31
2022-09-05T06:32:33.055Z,100926.78
2022-09-05T06:35:23.629Z,100922.78
2022-09-05T06:38:00.966Z,100920.38
2022-09-05T06:40:35.304Z,100924.50
2022-09-05T06:43:24.566Z,100924.94
2022-09-05T06:46:04.323Z,100931.72
2022-09-05T06:48:44.616Z,100931.81
2022-09-05T06:51:37.887Z,100924.06
2022-09-05T06:54:32.625Z,100924.44
2022-09-05T06:57:23.764Z,100926.84
2022-09-05T07:00:18.169Z,100928.59
2022-09-05T07:03:03.930Z,100928.97
2022-09-05T07:05:44.732Z,100922.88
2022-09-05T07:08:34.123Z,100932.16
2022-09-05T07:11:15.714Z,100926.97
2022-09-05T07:13:55.156Z,100934.03
2022-09-05T07:16:37.183Z,100927.16
2022-09-05T07:19:14.364Z,100938.53
2022-09-05T07:21:45.536Z,100931.09
2022-09-05T07:24:54.604Z,100933.47
2022-09-05T07:27:30.023Z,100938.38
2022-09-05T07:30:02.338Z,100935.97
2022-09-05T07:32:33.809Z,100943.22
2022-09-05T07:35:04.413Z,100941.25
2022-09-05T07:37:36.611Z,100947.22
2022-09-05T07:40:24.689Z,100950.59
2022-09-05T07:43:09.402Z,100946.72
2022-09-05T07:45:56.232Z,100947.16
2022-09-05T07:48:29.753Z,100943.75
2022-09-05T07:56:50.755Z,100939.38
2022-09-05T07:56:55.620Z,100945.03
2022-09-05T07:57:20.859Z,100938.34
2022-09-05T07:59:37.750Z,100943.56
2022-09-05T08:02:10.941Z,100943.34
2022-09-05T08:04:40.994Z,100934.06
2022-09-05T08:07:48.272Z,100930.34
2022-09-05T08:10:06.661Z,100937.28
2022-09-05T08:13:00.593Z,100941.06
2022-09-05T08:16:09.777Z,100937.31
2022-09-05T08:18:24.922Z,100935.81
2022-09-05T08:20:54.891Z,100937.06
2022-09-05T08:23:37.675Z,100926.78
2022-09-05T08:26:10.712Z,100929.50
2022-09-05T08:28:43.597Z,100925.53
2022-09-05T08:31:14.979Z,100938.09
2022-09-05T08:33:47.238Z,100935.47
2022-09-05T08:36:20.841Z,100933.75
2022-09-05T08:38:51.116Z,100924.06
2022-09-05T08:41:23.630Z,100927.41
2022-09-05T08:46:35.742Z,100934.47
2022-09-05T08:46:55.956Z,100927.81
2022-09-05T08:49:46.120Z,100932.06
2022-09-05T08:52:17.190Z,100933.47
2022-09-05T08:54:49.245Z,100925.41
2022-09-05T08:57:20.715Z,100925.69
2022-09-05T09:00:19.147Z,100919.25
2022-09-05T09:03:04.478Z,100919.94
2022-09-05T09:06:08.524Z,100924.59
2022-09-05T09:08:45.238Z,100925.22
2022-09-05T09:11:15.761Z,100923.47
2022-09-05T09:13:52.405Z,100925.69
2022-09-05T09:16:30.554Z,100920.78
2022-09-05T09:19:05.695Z,100915.88
2022-09-05T09:21:42.681Z,100915.06
2022-09-05T09:24:20.436Z,100917.72
2022-09-05T09:26:53.996Z,100917.63
2022-09-05T09:29:23.430Z,100906.81
2022-09-05T09:32:01.579Z,100912.97
2022-09-05T09:34:49.402Z,100908.84
2022-09-05T09:37:50.701Z,100909.44
2022-09-05T09:40:47.682Z,100904.88
2022-09-05T09:43:30.884Z,100904.44
2022-09-05T09:46:14.333Z,100896.75
2022-09-05T09:48:54.794Z,100896.03
2022-09-05T09:51:42.683Z,100892.50
2022-09-05T09:54:27.486Z,100896.91
2022-09-05T09:57:44.927Z,100894.47
2022-09-05T10:00:17.699Z,100886.13
2022-09-05T10:04:30.988Z,100883.34
2022-09-05T10:10:35.088Z,100871.91
2022-09-05T10:10:54.004Z,100876.81
2022-09-05T10:12:31.871Z,100874.91
2022-09-05T10:15:30.656Z,100868.75
2022-09-05T10:18:29.052Z,100870.19
2022-09-05T10:21:39.304Z,100858.91
2022-09-05T10:24:38.419Z,100862.47
2022-09-05T10:27:25.137Z,100857.16
2022-09-05T10:30:10.508Z,100854.38
2022-09-05T10:35:19.869Z,100844.44
2022-09-05T10:35:37.505Z,100851.59
2022-09-05T10:38:13.303Z,100853.31
2022-09-05T10:41:19.892Z,100846.97
2022-09-05T10:43:38.890Z,100841.25
2022-09-05T10:46:16.959Z,100842.47
2022-09-05T10:48:55.770Z,100834.69
2022-09-05T10:51:32.422Z,100828.59
2022-09-05T10:54:17.561Z,100823.44
2022-09-05T10:56:48.377Z,100816.97
2022-09-05T11:01:20.719Z,100821.66
2022-09-05T11:02:29.620Z,100813.94
2022-09-05T11:05:07.580Z,100801.75
2022-09-05T11:07:41.771Z,100803.78
2022-09-05T11:10:14.576Z,100810.44
2022-09-05T11:13:14.367Z,100803.72
2022-09-05T11:16:03.822Z,100803.00
2022-09-05T11:18:56.901Z,100790.66
2022-09-05T11:21:48.529Z,100789.28
2022-09-05T11:24:32.901Z,100787.56
2022-09-05T11:27:24.602Z,100785.25
2022-09-05T11:29:55.732Z,100782.88
2022-09-05T11:36:03.972Z,100779.97
2022-09-05T11:39:55.070Z,100774.06
2022-09-05T11:39:57.629Z,100764.19
2022-09-05T11:42:09.061Z,100771.06
2022-09-05T11:44:42.913Z,100771.03
2022-09-05T11:47:44.139Z,100770.03
2022-09-05T11:50:35.654Z,100761.78
2022-09-05T11:53:40.899Z,100765.38
2022-09-05T11:56:25.506Z,100766.09
2022-09-05T11:59:14.671Z,100765.91
2022-09-05T12:01:47.682Z,100765.63
2022-09-05T12:04:32.585Z,100767.41
2022-09-05T12:10:46.445Z,100762.00
2022-09-05T12:13:51.174Z,100747.31
2022-09-05T12:16:28.834Z,100758.66
2022-09-05T12:19:19.065Z,100758.13
2022-09-05T12:22:08.702Z,100748.19
2022-09-05T12:25:24.068Z,100739.44
2022-09-05T12:27:52.477Z,100735.50
2022-09-05T12:30:52.218Z,100730.47
2022-09-05T12:36:02.409Z,100725.88
2022-09-05T12:40:57.037Z,100725.94
2022-09-05T12:41:35.011Z,100720.34
2022-09-05T12:42:08.241Z,100763.69
2022-09-05T12:42:33.086Z,100721.84
2022-09-05T12:45:11.822Z,100718.16
2022-09-05T12:47:55.355Z,100718.16
2022-09-05T12:50:32.353Z,100713.97
2022-09-05T12:53:05.692Z,100708.34
2022-09-05T12:55:37.101Z,100714.25
2022-09-05T13:02:56.793Z,100715.59
2022-09-05T13:03:09.381Z,100706.09
2022-09-05T13:04:18.548Z,100708.06
2022-09-05T13:06:51.225Z,100708.34
2022-09-05T13:09:27.736Z,100712.19
2022-09-05T13:14:57.661Z,100716.59
2022-09-05T13:15:21.893Z,100706.47
2022-09-05T13:17:55.608Z,100701.44
2022-09-05T13:20:34.393Z,100699.41
2022-09-05T13:23:05.890Z,100695.06
2022-09-05T13:25:36.181Z,100697.59
2022-09-05T13:28:08.524Z,100694.16
2022-09-05T13:36:22.156Z,100688.38
2022-09-05T13:38:06.457Z,100687.09
2022-09-05T13:38:12.341Z,100691.97
2022-09-05T13:39:28.305Z,100681.72
2022-09-05T13:41:59.664Z,100684.22
2022-09-05T13:44:30.128Z,100679.44
2022-09-05T13:47:02.685Z,100677.50
2022-09-05T13:49:55.540Z,100676.94
2022-09-05T13:52:30.025Z,100673.38
2022-09-05T13:55:07.386Z,100673.56
2022-09-05T13:57:38.989Z,100674.81
2022-09-05T14:00:40.953Z,100657.81
2022-09-05T14:03:36.090Z,100661.91
2022-09-05T14:06:46.382Z,100659.78
2022-09-05T14:12:08.150Z,100648.09
2022-09-05T14:17:51.517Z,100655.97
2022-09-05T14:20:37.513Z,100643.63
2022-09-05T14:23:09.288Z,100648.59
2022-09-05T14:25:40.363Z,100650.97
2022-09-05T14:28:14.446Z,100638.00
2022-09-05T14:33:48.050Z,100634.97
2022-09-05T14:37:40.436Z,100627.44
2022-09-05T14:37:50.569Z,100630.00
2022-09-05T14:39:45.187Z,100619.91
2022-09-05T14:42:38.193Z,100619.84
2022-09-05T14:45:33.282Z,100614.03
2022-09-05T14:48:29.134Z,100612.38
2022-09-05T14:51:25.496Z,100617.75
2022-09-05T14:54:02.789Z,100603.97
2022-09-05T14:57:23.745Z,100600.66
2022-09-05T15:02:45.724Z,100601.22
2022-09-05T15:02:50.349Z,100590.31
2022-09-05T15:05:21.342Z,100597.22
2022-09-05T15:07:55.317Z,100598.03
2022-09-05T15:12:20.615Z,100597.50
2022-09-05T15:13:25.867Z,100591.91
2022-09-05T15:16:02.141Z,100583.13
2022-09-05T15:18:33.052Z,100590.03
2022-09-05T15:21:33.396Z,100577.44
2022-09-05T15:24:13.708Z,100569.72
2022-09-05T15:26:53.811Z,100566.44
2022-09-05T15:29:25.214Z,100569.25
2022-09-05T15:32:09.537Z,100567.97
2022-09-05T15:34:39.941Z,100570.56
2022-09-05T15:37:25.090Z,100561.00
2022-09-05T15:40:03.792Z,100565.53
2022-09-05T15:42:41.098Z,100557.56
2022-09-05T15:45:12.721Z,100554.72
2022-09-05T15:47:47.313Z,100564.13
2022-09-05T15:50:22.662Z,100552.25
2022-09-05T15:52:55.269Z,100555.88
2022-09-05T15:55:26.336Z,100554.28
2022-09-05T15:57:59.213Z,100544.69
2022-09-05T16:00:38.973Z,100547.59
2022-09-05T16:04:49.883Z,100548.84
2022-09-05T16:07:42.984Z,100553.06
2022-09-05T16:10:50.282Z,100545.16
2022-09-05T16:14:39.592Z,100553.00
2022-09-05T16:23:19.203Z,100542.44
2022-09-05T16:23:28.095Z,100532.31
2022-09-05T16:23:37.996Z,100540.97
2022-09-05T16:25:43.940Z,100529.78
2022-09-05T16:28:15.600Z,100528.44
2022-09-05T16:30:47.691Z,100521.88
2022-09-05T16:33:18.735Z,100519.16
2022-09-05T16:35:50.392Z,100522.56
2022-09-05T16:38:25.874Z,100517.75
2022-09-05T16:41:12.156Z,100515.22
2022-09-05T16:43:44.003Z,100519.34
2022-09-05T16:46:20.850Z,100515.28
2022-09-05T16:48:55.013Z,100512.28
2022-09-05T16:51:35.419Z,100511.94
2022-09-05T16:54:10.977Z,100507.38
2022-09-05T16:56:42.091Z,100506.72
2022-09-05T16:59:12.372Z,100501.66
2022-09-05T17:02:05.766Z,100512.75
2022-09-05T17:05:04.411Z,100503.63
2022-09-05T17:07:54.585Z,100498.59
2022-09-05T17:10:25.528Z,100497.31
2022-09-05T17:12:55.086Z,100497.16
2022-09-05T17:15:26.215Z,100500.38
2022-09-05T17:18:20.091Z,100495.88
2022-09-05T17:20:52.280Z,100496.22
2022-09-05T17:29:20.567Z,100493.50
2022-09-05T17:29:26.819Z,100484.38
2022-09-05T17:29:40.658Z,100480.19
2022-09-05T17:31:58.550Z,100484.03
2022-09-05T17:34:58.736Z,100486.63
2022-09-05T17:38:11.021Z,100478.09
2022-09-05T17:41:06.861Z,100490.78
2022-09-05T17:43:38.612Z,100480.34
2022-09-05T17:46:17.327Z,100476.03
2022-09-05T17:49:19.311Z,100476.34
2022-09-05T17:52:23.663Z,100486.41
2022-09-05T17:54:55.055Z,100483.97
2022-09-05T17:57:41.308Z,100485.88
2022-09-05T18:01:05.596Z,100485.69
2022-09-05T18:04:18.116Z,100485.53
2022-09-05T18:06:59.579Z,100493.50
2022-09-05T18:10:14.569Z,100494.91
2022-09-05T18:13:13.713Z,100503.31
2022-09-05T18:16:13.277Z,100507.31
2022-09-05T18:19:29.536Z,100510.47
2022-09-05T18:21:49.781Z,100512.81
2022-09-05T18:24:24.216Z,100520.28
2022-09-05T18:26:56.045Z,100513.31
2022-09-05T18:32:45.268Z,100525.97
2022-09-05T18:35:37.705Z,100528.19
2022-09-05T18:38:18.394Z,100533.63
2022-09-05T18:41:09.273Z,100531.59
2022-09-05T18:43:54.641Z,100530.72
2022-09-05T18:46:40.969Z,100531.84
2022-09-05T18:50:08.200Z,100535.34
2022-09-05T18:52:03.052Z,100536.75
2022-09-05T18:54:33.388Z,100537.69
2022-09-05T18:57:27.330Z,100539.59
2022-09-05T18:59:54.703Z,100537.72
2022-09-05T19:02:51.225Z,100529.13
2022-09-05T19:05:28.416Z,100538.91
2022-09-05T19:07:59.676Z,100522.38
2022-09-05T19:10:34.669Z,100514.22
2022-09-05T19:13:11.600Z,100508.78
2022-09-05T19:15:48.256Z,100510.84
2022-09-05T19:18:26.921Z,100512.56
2022-09-05T19:21:12.075Z,100513.97
2022-09-05T19:23:44.982Z,100506.94
2022-09-05T19:26:14.430Z,100511.84
2022-09-05T19:36:51.769Z,100515.44
2022-09-05T19:36:57.561Z,100512.13
2022-09-05T19:37:15.602Z,100512.34
2022-09-05T19:37:38.239Z,100521.88
2022-09-05T19:47:29.615Z,100517.94
2022-09-05T19:47:40.839Z,100517.22
2022-09-05T19:47:42.436Z,100505.97
2022-09-05T19:48:40.304Z,100504.28
2022-09-05T19:51:18.232Z,100505.59
2022-09-05T19:54:04.139Z,100514.81
2022-09-05T19:56:36.167Z,100510.28
2022-09-05T19:59:06.382Z,100498.75
2022-09-05T20:01:35.991Z,100499.91
2022-09-05T20:04:05.685Z,100502.47
2022-09-05T20:06:37.784Z,100496.94
2022-09-05T20:09:11.809Z,100496.16
2022-09-05T20:11:46.453Z,100499.66
2022-09-05T20:14:20.441Z,100502.75
2022-09-05T20:16:50.432Z,100493.09
2022-09-05T20:19:31.770Z,100499.50
2022-09-05T20:22:47.627Z,100498.19
2022-09-05T20:25:05.985Z,100495.69
2022-09-05T20:27:35.586Z,100497.63
2022-09-05T20:30:06.352Z,100500.69
2022-09-05T20:32:40.518Z,100492.63
2022-09-05T20:41:55.903Z,100501.94
2022-09-05T20:43:12.303Z,100502.22
2022-09-05T20:43:20.809Z,100507.78
2022-09-05T20:44:22.837Z,100510.84
2022-09-05T20:50:38.642Z,100510.06
2022-09-05T20:54:22.168Z,100507.72
2022-09-05T20:54:27.030Z,100517.00
2022-09-05T20:55:38.190Z,100508.66
2022-09-05T20:58:11.474Z,100509.78
2022-09-05T21:01:15.509Z,100499.06
2022-09-05T21:03:36.707Z,100502.56
2022-09-05T21:06:19.999Z,100494.22
2022-09-05T21:08:49.582Z,100497.47
2022-09-05T21:11:30.327Z,100498.84
2022-09-05T21:14:00.581Z,100497.84
2022-09-05T21:16:31.177Z,100500.25
2022-09-05T21:19:00.704Z,100491.63
2022-09-05T21:21:30.921Z,100505.47
2022-09-05T21:24:16.663Z,100502.38
2022-09-05T21:26:53.469Z,100508.06
2022-09-05T21:29:33.335Z,100510.22
2022-09-05T21:32:03.972Z,100506.19
2022-09-05T21:34:45.405Z,100496.69
2022-09-05T21:37:15.648Z,100495.69
2022-09-05T21:39:59.278Z,100506.81
2022-09-05T21:47:20.352Z,100499.84
2022-09-05T21:47:44.281Z,100493.13
2022-09-05T21:48:15.082Z,100492.38
2022-09-05T21:50:48.981Z,100493.22
2022-09-05T21:56:24.187Z,100487.06
2022-09-05T21:59:18.594Z,100484.63
2022-09-05T21:59:25.142Z,100487.09
2022-09-05T22:02:05.427Z,100487.16
2022-09-05T22:04:40.058Z,100489.25
2022-09-05T22:07:26.383Z,100476.88
2022-09-05T22:10:03.249Z,100479.88
2022-09-05T22:12:35.901Z,100470.19
2022-09-05T22:15:26.534Z,100469.97
2022-09-05T22:18:16.204Z,100474.03
2022-09-05T22:21:01.320Z,100464.88
2022-09-05T22:23:37.091Z,100471.38
2022-09-05T22:26:07.895Z,100461.44
2022-09-05T22:28:38.421Z,100471.44
2022-09-05T22:31:10.651Z,100462.56
2022-09-05T22:33:40.971Z,100457.44
2022-09-05T22:36:10.808Z,100458.53
2022-09-05T22:38:43.427Z,100459.66
2022-09-05T22:41:13.028Z,100445.09
2022-09-05T22:43:43.549Z,100441.09
2022-09-05T22:46:15.606Z,100451.13
2022-09-05T22:48:45.072Z,100447.91
2022-09-05T22:51:16.557Z,100443.06
2022-09-05T22:53:45.993Z,100457.16
2022-09-05T22:56:15.480Z,100465.78
2022-09-05T22:58:46.801Z,100472.28
2022-09-05T23:01:18.903Z,100466.63
2022-09-05T23:03:48.500Z,100462.59
2022-09-05T23:06:17.968Z,100458.28
2022-09-05T23:08:47.409Z,100447.78
2022-09-05T23:11:18.026Z,100449.69
2022-09-05T23:13:47.649Z,100467.81
2022-09-05T23:16:19.700Z,100477.31
2022-09-05T23:18:52.074Z,100480.28
2022-09-05T23:21:21.570Z,100484.13
2022-09-05T23:23:51.144Z,100479.25
2022-09-05T23:26:20.592Z,100485.19
2022-09-05T23:28:50.041Z,100488.13
2022-09-05T23:31:22.135Z,100488.13
2022-09-05T23:33:51.920Z,100491.34
2022-09-05T23:36:21.345Z,100493.78
2022-09-05T23:38:50.785Z,100482.44
2022-09-05T23:41:20.240Z,100483.78
2022-09-05T23:43:49.686Z,100481.59
2022-09-05T23:46:21.724Z,100470.53
2022-09-05T23:48:51.295Z,100469.72
2022-09-05T23:51:20.809Z,100469.19
2022-09-05T23:53:50.248Z,100455.72
2022-09-05T23:56:19.725Z,100460.63
2022-09-05T23:58:49.160Z,100454.41
